METAR Data
IDs: Format: Raw Decoded Include TAF

Data at: 1340 UTC 14 Dec 2019

PADQ 141253Z AUTO 18007KT 10SM FEW030 SCT039 SCT060 04/M01 A2951 RMK AO2 SLP993 T00441006 TSNO $
PADQ 141238Z AUTO 21011KT 10SM FEW024 BKN039 OVC060 04/01 A2951 RMK AO2 T00440011 TSNO $
PADQ 141212Z AUTO 19009KT 10SM BKN023 OVC046 04/02 A2950 RMK AO2 T00440022 TSNO $
PADQ 141153Z AUTO 17008KT 10SM FEW005 FEW026 OVC045 04/03 A2949 RMK AO2 RAB17E20 SLP988 P0000 60001 70041 T00440028 10056 20033 51003 TSNO $
PADQ 141135Z AUTO 00000KT 6SM BR SCT004 BKN016 OVC041 04/03 A2949 RMK AO2 RAB17E20 P0000 T00440033 TSNO $
PADQ 141128Z AUTO 20004KT 5SM BR BKN003 BKN017 OVC022 04/03 A2950 RMK AO2 RAB17E20 P0000 T00440028 TSNO $
PADQ 141100Z AUTO 00000KT 5SM BR BKN005 BKN010 OVC024 04/03 A2949 RMK AO2 T00390028 TSNO $
PADQ 141053Z AUTO 00000KT 10SM SCT005 BKN010 OVC027 04/03 A2949 RMK AO2 SLP988 T00390028 TSNO $
PADQ 141049Z AUTO 00000KT 10SM SCT005 BKN010 OVC027 04/03 A2949 RMK AO2 TSNO $
PADQ 141034Z AUTO 29003KT 9SM FEW012 OVC017 04/03 A2949 RMK AO2 T00390028 TSNO $
PADQ 140957Z AUTO 00000KT 10SM FEW002 BKN014 OVC060 04/03 A2949 RMK AO2 T00390028 TSNO $
PADQ 140953Z AUTO 00000KT 10SM BKN015 BKN021 OVC060 03/02 A2949 RMK AO2 SLP986 T00330022 TSNO $
PADQ 140945Z AUTO 00000KT 10SM BKN021 BKN028 BKN060 03/02 A2949 RMK AO2 T00330022 TSNO $
PADQ 140929Z AUTO 00000KT 10SM FEW023 SCT031 BKN060 04/02 A2948 RMK AO2 T00390022 TSNO $
PADQ 140853Z AUTO 00000KT 10SM SCT014 OVC025 04/03 A2947 RMK AO2 SLP981 60001 T00440033 400720044 51009 TSNO $
PADQ 140848Z AUTO 00000KT 10SM FEW012 BKN018 OVC025 04/03 A2947 RMK AO2 TSNO $
PADQ 140818Z AUTO 00000KT 9SM BKN013 OVC027 05/04 A2946 RMK AO2 T00500039 TSNO $
PADQ 140753Z AUTO 00000KT 10SM OVC017 05/04 A2945 RMK AO2 SLP975 T00500039 TSNO $
PADQ 140717Z AUTO 00000KT 10SM SCT015 OVC025 05/04 A2945 RMK AO2 T00500039 TSNO $
PADQ 140653Z AUTO 00000KT 10SM BKN013 BKN024 OVC029 05/03 A2944 RMK AO2 RAE33 SLP970 P0001 T00500033 TSNO $
PADQ 140645Z AUTO 28004KT 10SM BKN013 OVC022 05/04 A2944 RMK AO2 RAE33 P0001 T00500039 TSNO $
PADQ 140553Z AUTO 36006KT 4SM -RA BR FEW017 OVC023 06/04 A2943 RMK AO2 RAB50 SLP966 P0000 60011 T00560039 10067 20050 53008 TSNO $
PADQ 140545Z AUTO 02004KT 9SM SCT019 OVC025 06/04 A2943 RMK AO2 T00560039 TSNO $
PADQ 140518Z AUTO 27004KT 10SM FEW017 BKN037 OVC050 06/04 A2942 RMK AO2 T00560039 TSNO $
PADQ 140453Z 31004KT 7SM FEW017 BKN029 OVC035 06/04 A2942 RMK AO2 RAB03E12 SLP962 P0001 T00560039 $
PADQ 140422Z 36003KT 8SM SCT009 BKN037 OVC050 06/04 A2942 RMK AO2 RAB03E12 P0001 T00560039 $
PADQ 140411Z 36004KT 4SM -RA BR SCT010 BKN017 OVC038 06/04 A2941 RMK AO2 RAB03 P0001 T00560039 $
PADQ 140403Z 36004KT 2 1/2SM -RA BR SCT008 OVC017 06/04 A2941 RMK AO2 RAB03 P0001 T00560039 $
PADQ 140353Z 33003KT 3SM BR FEW010 OVC017 06/04 A2941 RMK AO2 RAE01B33E48 SLP958 P0001 T00560039 $
PADQ 140348Z 35005KT 3SM BR FEW010 OVC017 06/04 A2941 RMK AO2 RAE01B33E48 P0001 $
PADQ 140340Z 32005KT 2 1/2SM -RA BR SCT010 OVC015 06/04 A2941 RMK AO2 RAE01B33 P0001 T00560039 $
PADQ 140253Z 31006KT 3SM -RA BR OVC020 06/04 A2939 RMK AO2 RAB09 SLP952 P0002 60009 T00610039 53015 $
PADQ 140201Z 28003KT 5SM BR SCT011 SCT017 OVC022 06/04 A2938 RMK AO2 T00610044 $
PADQ 140153Z 30003KT 1 3/4SM BR SCT009 BKN013 OVC020 06/05 A2938 RMK AO2 RAE39 SLP948 P0004 T00610050 $
PADQ 140100Z 00000KT 1 3/4SM -RA BR OVC013 06/04 A2936 RMK AO2 P0001 T00610044 $
PADQ 140053Z 00000KT 1 3/4SM -RA BR BKN009 BKN017 OVC021 06/04 A2936 RMK AO2 SLP942 P0003 T00610044 $
PADQ 140039Z 28003KT 1 3/4SM -RA BR BKN009 BKN017 OVC021 06/04 A2936 RMK AO2 P0002 T00610044 $
PADQ 140009Z 34005KT 4SM -RA BR BKN008 OVC019 06/04 A2935 RMK AO2 P0002 T00610044 $
PADQ 140000Z 32005KT 2SM -RA BR BKN008 OVC014 06/04 A2935 RMK AO2 VIS 1 1/4V4 P0001 T00610044 $
PADQ 132353Z 36004KT 1 3/4SM RA BR OVC010 07/05 A2935 RMK AO2 SLP937 P0005 60016 T00670050 10072 20061 52021 $
PADQ 132346Z 35005KT 2SM -RA BR BKN010 OVC014 07/04 A2934 RMK AO2 P0005 T00670044 $
PADQ 132253Z 36006KT 1 1/2SM -RA BR BKN005 BKN014 OVC020 07/05 A2932 RMK AO2 RAB03 SLP930 P0002 T00670050 $
PADQ 132216Z 03014KT 1 1/2SM -RA BR BKN005 BKN014 OVC020 07/05 A2931 RMK AO2 RAB03 P0000 T00670050
PADQ 132153Z VRB05KT 9SM BKN005 OVC017 07/05 A2931 RMK AO2 RAE2055B20E34 SLP924 P0000 T00720050
PADQ 132121Z VRB06KT 6SM -RA BR BKN005 OVC017 07/05 A2930 RMK AO2 RAE2055B20 P0000 T00670050
PADQ 132106Z 03010KT 10SM BKN010 BKN014 OVC019 07/05 A2929 RMK AO2 RAE2055 P0000 T00670050
PADQ 132053Z 01007KT 4SM -RA BR BKN008 OVC025 07/05 A2928 RMK AO2 RAE04B20 SLP916 P0002 60009 T00670050 51020
PADQ 132050Z 02008KT 3SM -RA BR BKN008 OVC021 07/05 A2928 RMK AO2 RAE04B20 P0002
PADQ 132040Z 02004KT 3SM -RA BR SCT007 BKN012 OVC023 07/05 A2928 RMK AO2 RAE04B20 P0001 T00670050
PADQ 132000Z 32006KT 2 1/2SM -RA BR BKN007 OVC013 06/04 A2926 RMK AO2 P0000 T00610044
PADQ 131953Z 36007KT 2 1/2SM RA BR SCT009 BKN013 OVC017 06/04 A2926 RMK AO2 RAB1854 SLP907 P0006 T00610044
PADQ 131949Z VRB05KT 2 1/2SM -RA BR BKN009 OVC015 06/04 A2925 RMK AO2 RAB1854 P0005
PADQ 131942Z 01007KT 1 1/4SM RA BR FEW007 BKN012 OVC019 06/04 A2925 RMK AO2 RAB1854 P0004 T00610044
PADQ 131853Z 31008KT 8SM OVC025 07/04 A2922 RMK AO2 RAB07E33 SLP896 P0001 T00670044
PADQ 131837Z 30008KT 10SM FEW017 SCT024 OVC029 06/04 A2922 RMK AO2 RAB07E33 P0001 T00610044
PADQ 131829Z 30007KT 10SM -RA FEW019 SCT024 OVC031 07/04 A2921 RMK AO2 RAB07 P0001 T00670044
PADQ 131753Z 34004KT 10SM SCT018 BKN025 OVC030 06/04 A2919 RMK AO2 SLP886 60013 T00610044 10067 20061 51021
PADQ 131713Z 34006KT 10SM SCT006 BKN040 OVC048 06/04 A2917 RMK AO2 T00610044
PADQ 131653Z 03007KT 4SM BR BKN006 OVC011 06/04 A2917
PADQ 131649Z 03008KT 3SM BR BKN004 BKN008 OVC014 06/04 A2916 RMK AO2 RAE48 P0003
PADQ 131642Z 02009KT 3SM -RA BR BKN006 OVC016 06/04 A2916 RMK AO2 P0003 T00610044
PADQ 131633Z 35006KT 4SM -RA BR SCT008 BKN012 OVC019 06/04 A2915 RMK AO2 P0003 T00610044
PADQ 131627Z 33009KT 2 1/2SM -RA BR FEW008 SCT012 OVC019 06/04 A2915 RMK AO2 P0003 T00610044 $
PADQ 131553Z 32007KT 5SM -RA BR FEW014 FEW019 OVC026 06/04 A2913 RMK AO2 SLP865 P0005 T00610044 $
PADQ 131453Z AUTO 31006KT 4SM -RA BR FEW013 OVC021 06/04 A2912 RMK AO2 RAE05B25 SLP859 P0001 60005 T00610044 51017 TSNO $
PADQ 131437Z AUTO 31005KT 7SM -RA FEW010 BKN021 OVC027 06/04 A2911 RMK AO2 RAE05B25 P0000 T00610044 TSNO $
PADQ 131407Z AUTO 32005KT 10SM BKN012 BKN023 OVC070 07/04 A2911 RMK AO2 RAE05 P0000 T00670044 TSNO $
PADQ 131353Z AUTO 35007KT 8SM -RA BKN009 BKN013 OVC100 07/04 A2910 RMK AO2 RAE34B53 SLP855 P0001 T00670044 TSNO $
PADQ 131253Z AUTO 35004KT 4SM -RA BR OVC008 07/05 A2909 RMK AO2 RAB09 SLP849 P0003 T00670050 TSNO $
PADQ 131208Z AUTO 01011KT 7SM OVC008 07/05 A2907 RMK AO2 T00670050 TSNO $
PADQ 131158Z AUTO 35008KT 6SM BR FEW006 BKN010 OVC017 07/05 A2907 RMK AO2 T00670050 TSNO $
PADQ 131153Z AUTO VRB05KT 5SM BR SCT010 OVC017 07/05 A2907 RMK AO2 RAE32 SLP842 P0003 60025 70048 T00670050 10072 20067 53016 TSNO $
PADQ 131132Z AUTO 36007G16KT 10SM SCT009 OVC019 07/04 A2906 RMK AO2 RAE32 P0003 T00670044 TSNO $
PADQ 131125Z AUTO 01011G18KT 4SM -RA BR SCT009 BKN013 OVC019 07/04 A2906 RMK AO2 P0003 T00670044 TSNO $
PADQ 131111Z AUTO 36006KT 9SM -RA BKN009 OVC014 07/05 A2905 RMK AO2 P0002 T00720050 TSNO $
PADQ 131058Z AUTO 01008G15KT 2 1/2SM -RA BR BKN011 OVC017 07/05 A2905 RMK AO2 P0001 T00670050 TSNO $
PADQ 131055Z AUTO 36009G15KT 3SM -RA BR BKN009 OVC014 07/05 A2905 RMK AO2 P0001 T00670050 TSNO $
PADQ 131053Z AUTO 02009G15KT 4SM -RA BR SCT009 OVC015 07/05 A2905 RMK AO2 SLP835 P0003 T00670050 TSNO $
PADQ 131046Z AUTO 01009KT 4SM -RA BR FEW007 BKN012 OVC017 07/05 A2905 RMK AO2 P0003 T00720050 TSNO $
PADQ 131010Z AUTO 02015G22KT 6SM -RA BR BKN010 BKN014 OVC036 07/05 A2904 RMK AO2 P0000 T00720050 TSNO $
PADQ 130953Z AUTO 01013G22KT 7SM -RA BKN009 BKN025 OVC034 07/05 A2903 RMK AO2 SLP831 P0009 T00720050 TSNO $
PADQ 130938Z AUTO 01014G20KT 5SM RA BR FEW009 BKN023 OVC032 07/05 A2903 RMK AO2 P0008 T00720050 TSNO $
PADQ 130927Z AUTO 02014KT 2SM -RA BR SCT009 OVC017 07/05 A2902 RMK AO2 P0007 T00720050 TSNO $
PADQ 130919Z AUTO 02016G24KT 2 1/2SM -RA BR SCT011 BKN015 OVC023 07/05 A2902 RMK AO2 P0005 T00720050 TSNO $
PADQ 130853Z AUTO 02016G22KT 4SM RA SCT009 SCT015 OVC025 07/04 A2902 RMK AO2 PK WND 01027/0818 SLP826 P0003 60010 T00720044 400780067 52004 TSNO $
PADQ 130850Z AUTO 01018G22KT 3SM RA BR SCT009 BKN015 OVC023 07/04 A2902 RMK AO2 PK WND 01027/0818 P0003 TSNO $
PADQ 130846Z AUTO 02014G19KT 2 1/2SM RA BR BKN009 BKN015 OVC021 07/05 A2902 RMK AO2 PK WND 01027/0818 VIS 2V3 P0002 T00670050 TSNO $
PADQ 130837Z AUTO 02015G19KT 3SM -RA BR BKN009 OVC013 07/04 A2902 RMK AO2 PK WND 01027/0818 P0001 T00670044 TSNO $
PADQ 130824Z AUTO 01019G27KT 5SM -RA BKN011 OVC020 07/04 A2902 RMK AO2 PK WND 01027/0818 P0001 T00720044 TSNO $
PADQ 130814Z AUTO 02017G23KT 5SM -RA SCT011 BKN017 OVC024 07/04 A2902 RMK AO2 P0001 T00720044 TSNO $
PADQ 130759Z AUTO 01016G24KT 5SM -RA BR FEW007 BKN013 OVC020 07/04 A2901 RMK AO2 P0000 T00670044 TSNO $
PADQ 130753Z AUTO 36015G24KT 4SM -RA BR SCT011 SCT015 OVC020 07/04 A2901 RMK AO2 SLP825 P0005 T00670044 TSNO $
PADQ 130746Z AUTO 01014G21KT 3SM RA BR FEW009 SCT013 OVC020 07/04 A2901 RMK AO2 P0004 T00670044 TSNO $
PADQ 130739Z AUTO 36011G24KT 2 1/2SM -RA BR FEW008 OVC018 07/04 A2901 RMK AO2 P0003 T00670044 TSNO $
PADQ 130715Z AUTO 36015G21KT 3SM -RA BR FEW010 OVC018 07/04 A2901 RMK AO2 P0001 T00670044 TSNO $
PADQ 130701Z AUTO 01013G19KT 2 1/2SM -RA BR FEW009 OVC020 07/04 A2901 RMK AO2 P0000 T00670044 TSNO $
PADQ 130653Z AUTO 36008G22KT 3SM -RA BR FEW011 OVC020 07/04 A2901 RMK AO2 PK WND 02027/0625 RAB03 SLP823 P0002 T00670044 TSNO $
PADQ 130637Z AUTO 01016KT 2 1/2SM -RA BR FEW011 OVC020 07/04 A2901 RMK AO2 PK WND 02027/0625 RAB03 P0001 T00670044 TSNO $
PADQ 130606Z AUTO 01014G20KT 3SM -RA FEW016 BKN024 OVC038 07/04 A2901 RMK AO2 RAB03 P0000 T00670039 TSNO $
PADQ 130553Z AUTO 36012KT 10SM FEW020 BKN041 OVC047 07/04 A2901 RMK AO2 SLP822 60009 T00720039 10072 20067 51004 TSNO $
PADQ 130453Z 01014G23KT 10SM BKN038 OVC050 07/04 A2900 RMK AO2 RAB02E11 SLP821 P0000 T00720039 $
PADQ 130353Z 02014G19KT 10SM OVC035 07/04 A2900 RMK AO2 SLP821 T00720039 $
PADQ 130332Z 02014KT 10SM FEW017 SCT022 OVC035 07/04 A2900 RMK AO2 T00720039 $
PADQ 130253Z 03015KT 10SM BKN015 BKN019 OVC031 07/04 A2900 RMK AO2 RAB02E30 SLP818 P0001 60009 T00720044 53009 $
PADQ 130153Z 04013KT 8SM BKN015 OVC033 07/05 A2898 RMK AO2 RAE14 SLP814 P0000 T00720050 $